createdAt,value
2023-04-24T00:01:26.294Z,70.50
2023-04-24T00:04:33.736Z,70.70
2023-04-24T00:07:37.525Z,70.40
2023-04-24T00:10:45.329Z,70.20
2023-04-24T00:13:49.093Z,71.00
2023-04-24T00:16:54.852Z,71.00
2023-04-24T00:19:58.938Z,70.70
2023-04-24T00:23:05.003Z,71.00
2023-04-24T00:26:10.705Z,70.70
2023-04-24T00:29:16.418Z,70.90
2023-04-24T00:32:20.321Z,71.10
2023-04-24T00:35:35.647Z,70.70
2023-04-24T00:38:39.366Z,71.10
2023-04-24T00:41:48.527Z,70.60
2023-04-24T00:44:52.304Z,70.60
2023-04-24T00:47:58.303Z,70.90
2023-04-24T00:51:02.074Z,70.80
2023-04-24T00:54:07.961Z,70.90
2023-04-24T00:57:13.806Z,70.70
2023-04-24T01:00:19.674Z,70.70
2023-04-24T01:03:24.454Z,71.00
2023-04-24T01:06:31.698Z,71.20
2023-04-24T01:09:35.412Z,71.20
2023-04-24T01:12:43.243Z,71.10
2023-04-24T01:15:49.491Z,70.70
2023-04-24T01:18:55.380Z,71.00
2023-04-24T01:22:01.281Z,70.70
2023-04-24T01:25:09.452Z,70.90
2023-04-24T01:28:14.623Z,70.60
2023-04-24T01:31:20.675Z,71.20
2023-04-24T01:34:25.460Z,71.00
2023-04-24T01:37:32.691Z,71.20
2023-04-24T01:40:38.344Z,71.40
2023-04-24T01:43:44.109Z,71.70
2023-04-24T01:46:47.857Z,71.10
2023-04-24T01:49:53.689Z,71.30
2023-04-24T01:52:57.425Z,71.30
2023-04-24T01:56:05.319Z,71.50
2023-04-24T01:59:09.896Z,71.40
2023-04-24T02:02:15.782Z,71.30
2023-04-24T02:05:19.575Z,71.40
2023-04-24T02:08:25.593Z,71.70
2023-04-24T02:11:31.497Z,71.10
2023-04-24T02:14:37.325Z,71.50
2023-04-24T02:17:41.308Z,71.50
2023-04-24T02:20:49.504Z,71.10
2023-04-24T02:23:53.233Z,71.00
2023-04-24T02:27:00.984Z,71.50
2023-04-24T02:30:05.553Z,71.40
2023-04-24T02:33:11.328Z,71.70
2023-04-24T02:36:15.639Z,71.30
2023-04-24T02:39:21.370Z,71.40
2023-04-24T02:42:26.938Z,71.90
2023-04-24T02:45:35.156Z,71.30
2023-04-24T02:48:38.978Z,71.40
2023-04-24T02:51:45.449Z,71.30
2023-04-24T02:54:49.130Z,71.10
2023-04-24T02:57:56.741Z,71.30
2023-04-24T03:01:00.694Z,71.30
2023-04-24T03:04:06.638Z,71.60
2023-04-24T03:07:10.474Z,71.40
2023-04-24T03:10:16.772Z,71.20
2023-04-24T03:13:22.356Z,71.40
2023-04-24T03:16:28.108Z,71.30
2023-04-24T03:19:32.635Z,71.60
2023-04-24T03:22:43.992Z,71.40
2023-04-24T03:25:49.037Z,71.30
2023-04-24T03:28:57.493Z,71.10
2023-04-24T03:32:01.351Z,70.90
2023-04-24T03:35:08.051Z,71.30
2023-04-24T03:38:11.849Z,71.20
2023-04-24T03:41:32.732Z,71.20
2023-04-24T03:44:47.663Z,71.30
2023-04-24T03:47:54.063Z,71.30
2023-04-24T03:50:57.903Z,72.20
2023-04-24T03:54:03.749Z,72.00
2023-04-24T03:57:09.541Z,71.40
2023-04-24T04:00:21.597Z,71.50
2023-04-24T04:03:31.607Z,71.90
2023-04-24T04:06:38.108Z,71.60
2023-04-24T04:09:42.648Z,71.50
2023-04-24T04:12:48.618Z,71.90
2023-04-24T04:15:54.277Z,71.80
2023-04-24T04:19:00.068Z,71.60
2023-04-24T04:22:03.776Z,72.10
2023-04-24T04:25:23.510Z,71.70
2023-04-24T04:28:27.198Z,71.80
2023-04-24T04:31:34.905Z,71.80
2023-04-24T04:34:45.753Z,71.60
2023-04-24T04:37:51.892Z,71.60
2023-04-24T04:41:07.665Z,72.00
2023-04-24T04:44:14.558Z,71.50
2023-04-24T04:47:20.512Z,71.80
2023-04-24T04:50:27.110Z,72.20
2023-04-24T04:53:37.842Z,71.80
2023-04-24T04:56:43.559Z,72.10
2023-04-24T04:59:47.344Z,71.80
2023-04-24T05:03:16.745Z,72.00
2023-04-24T05:06:26.390Z,72.10
2023-04-24T05:09:33.822Z,71.90
2023-04-24T05:12:40.609Z,71.80
2023-04-24T05:15:46.852Z,71.80
2023-04-24T05:18:54.244Z,72.30
2023-04-24T05:22:07.078Z,72.10
2023-04-24T05:25:14.832Z,71.50
2023-04-24T05:28:37.000Z,72.00
2023-04-24T05:31:45.491Z,71.80
2023-04-24T05:34:53.308Z,71.80
2023-04-24T05:38:12.899Z,71.90
2023-04-24T05:41:18.888Z,72.00
2023-04-24T05:44:22.582Z,72.10
2023-04-24T05:47:28.659Z,72.60
2023-04-24T05:50:36.802Z,72.80
2023-04-24T05:53:43.079Z,72.30
2023-04-24T05:56:47.355Z,72.30
2023-04-24T05:59:59.127Z,72.30
2023-04-24T06:03:04.452Z,72.70
2023-04-24T06:06:12.430Z,72.40
2023-04-24T06:09:17.467Z,72.30
2023-04-24T06:12:23.680Z,72.30
2023-04-24T06:15:33.694Z,72.30
2023-04-24T06:18:59.084Z,72.80
2023-04-24T06:22:04.834Z,72.30
2023-04-24T06:25:11.065Z,72.70
2023-04-24T06:28:14.812Z,72.60
2023-04-24T06:31:20.570Z,72.50
2023-04-24T06:34:24.263Z,72.70
2023-04-24T06:37:32.683Z,72.50
2023-04-24T06:40:36.367Z,72.80
2023-04-24T06:43:42.139Z,72.50
2023-04-24T06:46:45.855Z,72.40
2023-04-24T06:49:52.991Z,72.60
2023-04-24T06:52:58.587Z,73.00
2023-04-24T06:56:04.624Z,72.70
2023-04-24T06:59:08.399Z,72.90
2023-04-24T07:02:14.293Z,73.50
2023-04-24T07:05:20.368Z,73.10
2023-04-24T07:08:28.714Z,72.90
2023-04-24T07:11:33.358Z,73.30
2023-04-24T07:14:39.062Z,72.90
2023-04-24T07:17:44.048Z,72.70
2023-04-24T07:20:50.701Z,72.80
2023-04-24T07:23:56.333Z,72.70
2023-04-24T07:27:02.022Z,72.90
2023-04-24T07:30:06.221Z,73.20
2023-04-24T07:33:13.738Z,73.40
2023-04-24T07:36:19.435Z,73.20
2023-04-24T07:39:27.135Z,73.30
2023-04-24T07:42:31.524Z,73.10
2023-04-24T07:45:38.079Z,73.10
2023-04-24T07:48:41.998Z,72.70
2023-04-24T07:51:47.676Z,72.70
2023-04-24T07:54:58.670Z,72.70
2023-04-24T07:58:04.415Z,73.20
2023-04-24T08:01:08.212Z,73.20
2023-04-24T08:04:14.055Z,73.20
2023-04-24T08:07:17.884Z,73.10
2023-04-24T08:10:25.902Z,73.00
2023-04-24T08:13:29.949Z,73.30
2023-04-24T08:16:35.894Z,73.10
2023-04-24T08:19:39.773Z,73.70
2023-04-24T08:22:47.678Z,73.20
2023-04-24T08:25:53.462Z,73.00
2023-04-24T08:28:59.665Z,72.90
2023-04-24T08:32:03.419Z,73.30
2023-04-24T08:35:10.837Z,73.40
2023-04-24T08:38:14.521Z,73.10
2023-04-24T08:41:23.262Z,72.90
2023-04-24T08:44:27.076Z,73.10
2023-04-24T08:47:33.079Z,73.20
2023-04-24T08:50:37.147Z,73.30
2023-04-24T08:53:42.806Z,73.30
2023-04-24T08:56:50.135Z,73.40
2023-04-24T08:59:56.193Z,73.40
2023-04-24T09:03:00.254Z,73.40
2023-04-24T09:06:06.543Z,73.70
2023-04-24T09:09:10.753Z,73.20
2023-04-24T09:12:18.522Z,73.30
2023-04-24T09:15:22.687Z,73.40
2023-04-24T09:18:28.542Z,73.80
2023-04-24T09:21:34.191Z,73.50
2023-04-24T09:24:41.000Z,73.70
2023-04-24T09:27:47.389Z,73.60
2023-04-24T09:31:04.006Z,73.50
2023-04-24T09:34:08.600Z,73.80
2023-04-24T09:37:14.440Z,74.10
2023-04-24T09:40:18.750Z,73.60
2023-04-24T09:43:28.923Z,73.70
2023-04-24T09:46:34.176Z,73.40
2023-04-24T09:49:41.953Z,73.80
2023-04-24T09:52:46.753Z,73.60
2023-04-24T09:55:53.615Z,73.50
2023-04-24T09:59:06.429Z,73.90
2023-04-24T10:02:19.577Z,73.90
2023-04-24T10:05:25.829Z,74.10
2023-04-24T10:08:36.264Z,74.10
2023-04-24T10:11:40.121Z,73.70
2023-04-24T10:14:48.741Z,74.30
2023-04-24T10:17:54.619Z,74.30
2023-04-24T10:21:03.119Z,73.90
2023-04-24T10:24:08.048Z,73.50
2023-04-24T10:27:15.801Z,73.70
2023-04-24T10:30:22.523Z,74.10
2023-04-24T10:33:28.605Z,73.70
2023-04-24T10:36:33.431Z,74.00
2023-04-24T10:39:40.780Z,74.20
2023-04-24T10:42:45.031Z,74.40
2023-04-24T10:46:05.609Z,74.00
2023-04-24T10:49:09.804Z,73.30
2023-04-24T10:52:17.301Z,73.60
2023-04-24T10:55:35.906Z,74.00
2023-04-24T10:58:45.155Z,74.10
2023-04-24T11:01:54.915Z,73.70
2023-04-24T11:05:00.666Z,74.50
2023-04-24T11:08:14.079Z,73.90
2023-04-24T11:11:21.321Z,73.80
2023-04-24T11:14:25.034Z,73.90
2023-04-24T11:17:38.007Z,73.70
2023-04-24T11:20:44.587Z,73.60
2023-04-24T11:23:51.349Z,73.80
2023-04-24T11:26:55.920Z,74.20
2023-04-24T11:30:02.713Z,74.20
2023-04-24T11:33:11.093Z,74.30
2023-04-24T11:36:16.838Z,74.00
2023-04-24T11:39:20.546Z,74.10
2023-04-24T11:42:26.509Z,74.20
2023-04-24T11:45:31.591Z,74.30
2023-04-24T11:48:40.781Z,74.30
2023-04-24T11:51:53.123Z,74.00
2023-04-24T11:55:00.441Z,74.50
2023-04-24T11:58:04.397Z,74.30
2023-04-24T12:01:10.117Z,74.10
2023-04-24T12:04:16.278Z,74.50
2023-04-24T12:07:22.471Z,74.30
2023-04-24T12:10:26.709Z,74.40
2023-04-24T12:13:32.821Z,74.20
2023-04-24T12:16:36.577Z,74.40
2023-04-24T12:19:49.582Z,74.30
2023-04-24T12:22:54.759Z,74.10
2023-04-24T12:26:02.365Z,74.60
2023-04-24T12:29:06.597Z,74.30
2023-04-24T12:32:18.271Z,74.10
2023-04-24T12:35:24.661Z,74.10
2023-04-24T12:38:31.665Z,74.10
2023-04-24T12:41:35.551Z,74.00
2023-04-24T12:44:41.245Z,73.80
2023-04-24T12:47:45.442Z,73.90
2023-04-24T12:50:53.089Z,74.40
2023-04-24T12:53:56.826Z,74.20
2023-04-24T12:57:02.473Z,74.30
2023-04-24T13:00:07.107Z,74.10
2023-04-24T13:03:13.254Z,74.10
2023-04-24T13:06:19.097Z,74.30
2023-04-24T13:09:24.968Z,74.30
2023-04-24T13:12:28.700Z,74.00
2023-04-24T13:15:34.869Z,73.80
2023-04-24T13:18:38.535Z,73.90
2023-04-24T13:21:46.180Z,74.00
2023-04-24T13:24:52.629Z,74.00
2023-04-24T13:27:58.390Z,74.20
2023-04-24T13:31:02.157Z,74.40
2023-04-24T13:34:07.918Z,74.40
2023-04-24T13:37:13.709Z,74.00
2023-04-24T13:40:19.670Z,74.10
2023-04-24T13:43:23.625Z,73.90
2023-04-24T13:46:29.517Z,74.00
2023-04-24T13:49:33.309Z,74.10
2023-04-24T13:52:41.115Z,73.90
2023-04-24T13:55:44.839Z,74.10
2023-04-24T13:58:50.995Z,74.70
2023-04-24T14:01:55.244Z,73.80
2023-04-24T14:05:01.237Z,73.90
2023-04-24T14:08:07.147Z,74.20
2023-04-24T14:11:12.943Z,74.20
2023-04-24T14:14:16.602Z,74.40
2023-04-24T14:17:22.506Z,74.10
2023-04-24T14:20:26.424Z,74.00
2023-04-24T14:23:34.101Z,74.10
2023-04-24T14:26:37.828Z,74.20
2023-04-24T14:29:43.526Z,74.40
2023-04-24T14:32:47.508Z,74.40
2023-04-24T14:35:53.320Z,74.40
2023-04-24T14:38:58.964Z,74.40
2023-04-24T14:42:06.013Z,74.40
2023-04-24T14:45:10.379Z,74.00
2023-04-24T14:48:16.973Z,74.50
2023-04-24T14:51:20.674Z,74.30
2023-04-24T14:54:28.356Z,74.30
2023-04-24T14:57:32.125Z,74.50
2023-04-24T15:00:37.857Z,74.50
2023-04-24T15:03:41.704Z,74.70
2023-04-24T15:06:47.393Z,74.30
2023-04-24T15:09:53.023Z,74.50
2023-04-24T15:12:58.756Z,74.10
2023-04-24T15:16:02.603Z,74.20
2023-04-24T15:19:08.462Z,74.60
2023-04-24T15:22:12.249Z,74.40
2023-04-24T15:25:20.059Z,74.40
2023-04-24T15:28:23.758Z,74.10
2023-04-24T15:31:29.499Z,74.40
2023-04-24T15:34:33.285Z,74.90
2023-04-24T15:37:39.067Z,74.50
2023-04-24T15:40:45.191Z,74.90
2023-04-24T15:43:50.922Z,74.90
2023-04-24T15:46:54.762Z,74.60
2023-04-24T15:50:00.996Z,74.50
2023-04-24T15:53:04.744Z,74.10
2023-04-24T15:56:12.392Z,74.00
2023-04-24T15:59:16.059Z,74.10
2023-04-24T16:02:21.956Z,74.30
2023-04-24T16:05:27.817Z,74.60
2023-04-24T16:08:33.554Z,74.50
2023-04-24T16:11:39.251Z,74.30
2023-04-24T16:14:44.998Z,74.20
2023-04-24T16:17:48.715Z,74.50
2023-04-24T16:20:54.872Z,74.50
2023-04-24T16:23:58.561Z,74.20
2023-04-24T16:27:06.299Z,74.20
2023-04-24T16:30:10.546Z,73.90
2023-04-24T16:33:16.232Z,74.20
2023-04-24T16:36:20.095Z,74.10
2023-04-24T16:39:26.534Z,74.20
2023-04-24T16:42:32.249Z,74.00
2023-04-24T16:45:38.019Z,73.90
2023-04-24T16:48:41.702Z,74.30
2023-04-24T16:51:47.433Z,74.40
2023-04-24T16:54:51.323Z,73.80
2023-04-24T16:57:59.131Z,74.00
2023-04-24T17:01:02.843Z,73.60
2023-04-24T17:04:08.743Z,74.20
2023-04-24T17:07:12.916Z,73.90
2023-04-24T17:10:18.677Z,73.90
2023-04-24T17:13:24.292Z,74.10
2023-04-24T17:16:30.399Z,74.00
2023-04-24T17:19:34.148Z,74.20
2023-04-24T17:22:39.829Z,74.20
2023-04-24T17:25:43.574Z,74.00
2023-04-24T17:29:03.184Z,73.70
2023-04-24T17:32:06.947Z,73.30
2023-04-24T17:35:12.832Z,73.70
2023-04-24T17:38:16.593Z,73.80
2023-04-24T17:41:22.352Z,73.70
2023-04-24T17:44:27.988Z,73.80
2023-04-24T17:47:33.851Z,73.30
2023-04-24T17:50:37.538Z,73.40
2023-04-24T17:53:44.076Z,73.00
2023-04-24T17:56:47.913Z,73.30
2023-04-24T17:59:55.581Z,72.80
2023-04-24T18:06:06.616Z,72.80
2023-04-24T18:09:11.471Z,72.60
2023-04-24T18:12:17.167Z,72.60
2023-04-24T18:15:22.905Z,72.60
2023-04-24T18:18:28.618Z,72.60
2023-04-24T18:21:32.331Z,72.60
2023-04-24T18:24:38.066Z,72.30
2023-04-24T18:27:42.177Z,72.70
2023-04-24T18:30:49.962Z,72.40
2023-04-24T18:33:54.912Z,71.90
2023-04-24T18:37:00.608Z,72.40
2023-04-24T18:40:04.891Z,72.10
2023-04-24T18:43:10.684Z,72.20
2023-04-24T18:46:16.664Z,72.30
2023-04-24T18:49:22.654Z,72.10
2023-04-24T18:52:26.598Z,72.00
2023-04-24T18:55:33.396Z,72.00
2023-04-24T18:58:37.109Z,72.20
2023-04-24T19:01:50.262Z,72.20
2023-04-24T19:04:54.151Z,72.10
2023-04-24T19:08:01.001Z,72.00
2023-04-24T19:11:04.746Z,72.10
2023-04-24T19:14:10.680Z,72.00
2023-04-24T19:17:21.923Z,72.00
2023-04-24T19:20:27.621Z,71.90
2023-04-24T19:23:32.824Z,72.00
2023-04-24T19:26:38.768Z,72.00
2023-04-24T19:29:42.834Z,71.80
2023-04-24T19:32:50.549Z,71.80
2023-04-24T19:35:54.260Z,72.40
2023-04-24T19:39:00.016Z,71.90
2023-04-24T19:42:06.691Z,71.90
2023-04-24T19:45:13.606Z,72.00
2023-04-24T19:48:19.218Z,71.70
2023-04-24T19:51:25.369Z,71.80
2023-04-24T19:54:29.375Z,71.70
2023-04-24T19:57:35.133Z,71.60
2023-04-24T20:00:40.749Z,71.70
2023-04-24T20:03:48.500Z,71.60
2023-04-24T20:06:52.245Z,71.60
2023-04-24T20:09:58.002Z,71.60
2023-04-24T20:13:01.705Z,71.70
2023-04-24T20:16:09.562Z,71.80
2023-04-24T20:19:16.747Z,71.80
2023-04-24T20:22:22.481Z,71.90
2023-04-24T20:25:26.153Z,71.90
2023-04-24T20:28:31.940Z,71.70
2023-04-24T20:31:35.856Z,71.80
2023-04-24T20:34:43.544Z,71.80
2023-04-24T20:37:47.373Z,71.80
2023-04-24T20:40:58.025Z,71.80
2023-04-24T20:44:02.413Z,71.80
2023-04-24T20:47:08.218Z,71.80
2023-04-24T20:50:14.105Z,71.80
2023-04-24T20:53:19.798Z,71.80
2023-04-24T20:56:24.303Z,71.70
2023-04-24T20:59:30.086Z,71.70
2023-04-24T21:02:33.840Z,71.70
2023-04-24T21:05:41.498Z,71.70
2023-04-24T21:08:45.148Z,71.80
2023-04-24T21:11:50.842Z,71.70
2023-04-24T21:14:54.970Z,71.70
2023-04-24T21:18:00.698Z,71.80
2023-04-24T21:21:06.429Z,71.90
2023-04-24T21:24:12.397Z,71.90
2023-04-24T21:27:16.084Z,71.80
2023-04-24T21:30:22.152Z,71.80
2023-04-24T21:33:25.958Z,71.90
2023-04-24T21:36:33.598Z,71.80
2023-04-24T21:39:37.307Z,71.90
2023-04-24T21:42:43.387Z,71.90
2023-04-24T21:45:47.154Z,71.80
2023-04-24T21:48:52.872Z,71.90
2023-04-24T21:51:58.507Z,71.90
2023-04-24T21:55:04.250Z,71.90
2023-04-24T21:58:07.987Z,71.80
2023-04-24T22:01:15.055Z,71.90
2023-04-24T22:04:18.933Z,71.90
2023-04-24T22:07:26.802Z,71.90
2023-04-24T22:10:30.585Z,71.90
2023-04-24T22:13:36.214Z,71.90
2023-04-24T22:16:42.668Z,72.00
2023-04-24T22:19:48.326Z,72.00
2023-04-24T22:22:54.042Z,72.00
2023-04-24T22:26:00.231Z,72.00
2023-04-24T22:29:03.978Z,72.00
2023-04-24T22:32:09.759Z,72.00
2023-04-24T22:35:13.491Z,72.00
2023-04-24T22:38:21.091Z,72.00
2023-04-24T22:41:24.768Z,72.00
2023-04-24T22:44:30.474Z,72.00
2023-04-24T22:47:34.289Z,72.00
2023-04-24T22:50:40.222Z,72.10
2023-04-24T22:53:45.973Z,72.00
2023-04-24T22:56:52.417Z,72.00
2023-04-24T22:59:56.901Z,72.10
2023-04-24T23:03:02.947Z,72.10
2023-04-24T23:06:06.867Z,72.10
2023-04-24T23:09:14.441Z,72.20
2023-04-24T23:12:18.149Z,72.20
2023-04-24T23:15:23.857Z,72.30
2023-04-24T23:18:27.568Z,72.30
2023-04-24T23:21:34.078Z,72.30
2023-04-24T23:24:39.970Z,72.20
2023-04-24T23:27:45.686Z,72.20
2023-04-24T23:30:49.378Z,72.30
2023-04-24T23:33:55.045Z,72.30
2023-04-24T23:36:58.737Z,72.30
2023-04-24T23:40:09.235Z,72.30
2023-04-24T23:43:12.891Z,72.30
2023-04-24T23:46:18.711Z,72.30
2023-04-24T23:49:22.463Z,72.40
2023-04-24T23:52:28.151Z,72.30
2023-04-24T23:55:33.805Z,72.40
2023-04-24T23:58:39.536Z,72.30
